createdAt,value
2023-02-16T00:01:25.541Z,-2.72
2023-02-16T00:03:56.659Z,-2.73
2023-02-16T00:06:28.991Z,-2.74
2023-02-16T00:08:57.866Z,-2.74
2023-02-16T00:11:53.731Z,-2.74
2023-02-16T00:14:29.042Z,-2.75
2023-02-16T00:16:59.855Z,-2.73
2023-02-16T00:19:37.693Z,-2.74
2023-02-16T00:22:08.323Z,-2.73
2023-02-16T00:24:38.404Z,-2.74
2023-02-16T00:27:18.770Z,-2.75
2023-02-16T00:29:48.740Z,-2.76
2023-02-16T00:32:18.587Z,-2.77
2023-02-16T00:34:48.415Z,-2.78
2023-02-16T00:37:20.976Z,-2.77
2023-02-16T00:39:50.915Z,-2.78
2023-02-16T00:42:31.258Z,-2.78
2023-02-16T00:45:01.124Z,-2.79
2023-02-16T00:47:47.333Z,-2.78
2023-02-16T00:50:34.998Z,-2.81
2023-02-16T00:53:04.972Z,-2.81
2023-02-16T00:55:39.306Z,-2.83
2023-02-16T00:58:31.489Z,-2.81
2023-02-16T01:01:15.945Z,-2.82
2023-02-16T01:03:44.944Z,-2.81
2023-02-16T01:06:33.137Z,-2.81
2023-02-16T01:09:36.465Z,-2.82
2023-02-16T01:12:20.714Z,-2.83
2023-02-16T01:14:55.553Z,-2.85
2023-02-16T01:17:25.217Z,-2.85
2023-02-16T01:19:54.498Z,-2.85
2023-02-16T01:22:24.440Z,-2.86
2023-02-16T01:24:54.435Z,-2.88
2023-02-16T01:27:24.272Z,-2.87
2023-02-16T01:29:54.075Z,-2.89
2023-02-16T01:32:23.890Z,-2.90
2023-02-16T01:34:53.945Z,-2.90
2023-02-16T01:37:23.855Z,-2.90
2023-02-16T01:39:53.888Z,-2.90
2023-02-16T01:42:57.687Z,-2.89
2023-02-16T01:45:43.065Z,-2.90
2023-02-16T01:48:31.594Z,-2.88
2023-02-16T01:51:39.080Z,-2.87
2023-02-16T01:55:13.400Z,-2.88
2023-02-16T01:58:04.917Z,-2.88
2023-02-16T02:00:52.948Z,-2.88
2023-02-16T02:03:54.711Z,-2.86
2023-02-16T02:06:35.586Z,-2.85
2023-02-16T02:09:35.565Z,-2.82
2023-02-16T02:13:01.025Z,-2.82
2023-02-16T02:15:34.522Z,-2.83
2023-02-16T02:18:04.846Z,-2.85
2023-02-16T02:21:51.364Z,-2.87
2023-02-16T02:24:54.145Z,-2.91
2023-02-16T02:29:05.856Z,-2.92
2023-02-16T02:32:18.354Z,-2.93
2023-02-16T02:35:04.281Z,-2.94
2023-02-16T02:38:00.973Z,-2.94
2023-02-16T02:40:46.934Z,-2.96
2023-02-16T02:43:39.106Z,-2.96
2023-02-16T02:46:33.434Z,-2.95
2023-02-16T02:49:03.915Z,-2.99
2023-02-16T02:51:34.026Z,-3.01
2023-02-16T02:54:53.333Z,-3.05
2023-02-16T02:58:05.010Z,-3.07
2023-02-16T03:00:51.732Z,-3.09
2023-02-16T03:03:38.711Z,-3.10
2023-02-16T03:06:17.456Z,-3.11
2023-02-16T03:09:00.471Z,-3.11
2023-02-16T03:11:49.035Z,-3.11
2023-02-16T03:15:11.591Z,-3.13
2023-02-16T03:18:00.952Z,-3.15
2023-02-16T03:20:50.607Z,-3.15
2023-02-16T03:23:39.913Z,-3.15
2023-02-16T03:26:29.862Z,-3.11
2023-02-16T03:29:22.582Z,-3.10
2023-02-16T03:31:57.768Z,-3.12
2023-02-16T03:34:32.098Z,-3.10
2023-02-16T03:37:02.875Z,-3.10
2023-02-16T03:39:53.494Z,-3.07
2023-02-16T03:42:25.026Z,-3.02
2023-02-16T03:44:55.714Z,-3.02
2023-02-16T03:47:26.045Z,-3.01
2023-02-16T03:49:56.089Z,-3.04
2023-02-16T03:52:26.137Z,-3.04
2023-02-16T03:54:56.274Z,-3.05
2023-02-16T03:57:26.626Z,-3.04
2023-02-16T03:59:59.000Z,-3.05
2023-02-16T04:02:30.057Z,-3.01
2023-02-16T04:05:00.153Z,-2.99
2023-02-16T04:07:31.793Z,-2.98
2023-02-16T04:10:02.030Z,-2.98
2023-02-16T04:12:37.970Z,-2.96
2023-02-16T04:15:20.802Z,-2.91
2023-02-16T04:17:50.009Z,-2.87
2023-02-16T04:20:23.745Z,-2.80
2023-02-16T04:22:55.286Z,-2.79
2023-02-16T04:25:27.134Z,-2.80
2023-02-16T04:27:58.119Z,-2.79
2023-02-16T04:30:32.307Z,-2.75
2023-02-16T04:33:02.456Z,-2.70
2023-02-16T04:35:32.486Z,-2.69
2023-02-16T04:38:02.592Z,-2.68
2023-02-16T04:40:32.645Z,-2.69
2023-02-16T04:43:01.073Z,-2.70
2023-02-16T04:45:29.489Z,-2.73
2023-02-16T04:47:57.831Z,-2.75
2023-02-16T04:50:26.400Z,-2.74
2023-02-16T04:52:54.745Z,-2.74
2023-02-16T04:55:23.146Z,-2.74
2023-02-16T04:57:51.521Z,-2.70
2023-02-16T05:00:21.245Z,-2.64
2023-02-16T05:02:48.627Z,-2.65
2023-02-16T05:05:16.890Z,-2.65
2023-02-16T05:07:45.204Z,-2.66
2023-02-16T05:10:13.867Z,-2.68
2023-02-16T05:13:00.790Z,-2.68
2023-02-16T05:15:31.077Z,-2.70
2023-02-16T05:18:01.392Z,-2.70
2023-02-16T05:20:50.264Z,-2.73
2023-02-16T05:23:20.392Z,-2.77
2023-02-16T05:25:50.534Z,-2.80
2023-02-16T05:28:20.725Z,-2.82
2023-02-16T05:30:51.145Z,-2.84
2023-02-16T05:33:21.186Z,-2.85
2023-02-16T05:35:51.302Z,-2.88
2023-02-16T05:38:21.344Z,-2.93
2023-02-16T05:40:51.420Z,-2.98
2023-02-16T05:43:21.535Z,-3.02
2023-02-16T05:45:51.918Z,-3.08
2023-02-16T05:48:21.999Z,-3.11
2023-02-16T05:50:55.297Z,-3.13
2023-02-16T05:53:25.393Z,-3.11
2023-02-16T05:55:55.690Z,-3.07
2023-02-16T05:58:25.817Z,-2.97
2023-02-16T06:00:56.158Z,-2.89
2023-02-16T06:03:27.261Z,-2.82
2023-02-16T06:06:02.664Z,-2.77
2023-02-16T06:08:33.891Z,-2.70
2023-02-16T06:11:28.905Z,-2.70
2023-02-16T06:13:59.633Z,-2.74
2023-02-16T06:16:33.571Z,-2.75
2023-02-16T06:19:02.514Z,-2.77
2023-02-16T06:21:34.725Z,-2.79
2023-02-16T06:24:07.720Z,-2.80
2023-02-16T06:26:39.161Z,-2.78
2023-02-16T06:29:10.147Z,-2.73
2023-02-16T06:31:40.397Z,-2.69
2023-02-16T06:34:10.518Z,-2.66
2023-02-16T06:36:42.504Z,-2.59
2023-02-16T06:39:13.055Z,-2.41
2023-02-16T06:41:41.297Z,-2.36
2023-02-16T06:44:16.971Z,-2.41
2023-02-16T06:46:48.172Z,-2.37
2023-02-16T06:49:20.934Z,-2.31
2023-02-16T06:51:50.569Z,-2.27
2023-02-16T06:54:19.905Z,-2.21
2023-02-16T06:56:49.731Z,-2.07
2023-02-16T06:59:19.556Z,-2.02
2023-02-16T07:01:49.280Z,-1.99
2023-02-16T07:04:19.066Z,-1.97
2023-02-16T07:06:48.997Z,-1.93
2023-02-16T07:09:18.797Z,-1.88
2023-02-16T07:11:48.874Z,-1.71
2023-02-16T07:14:18.621Z,-1.68
2023-02-16T07:16:48.547Z,-1.66
2023-02-16T07:19:18.339Z,-1.68
2023-02-16T07:21:48.157Z,-1.61
2023-02-16T07:24:18.437Z,-1.53
2023-02-16T07:26:48.017Z,-1.48
2023-02-16T07:29:17.937Z,-1.36
2023-02-16T07:31:48.042Z,-1.26
2023-02-16T07:34:19.652Z,-1.18
2023-02-16T07:36:48.198Z,-1.15
2023-02-16T07:39:18.041Z,-1.08
2023-02-16T07:41:47.749Z,-0.92
2023-02-16T07:44:17.576Z,-0.91
2023-02-16T07:46:47.357Z,-0.86
2023-02-16T07:49:17.134Z,-0.80
2023-02-16T07:51:46.822Z,-0.64
2023-02-16T07:54:16.667Z,-0.59
2023-02-16T07:56:47.077Z,-0.44
2023-02-16T07:59:17.183Z,-0.35
2023-02-16T08:01:46.891Z,-0.34
2023-02-16T08:04:16.819Z,-0.30
2023-02-16T08:06:48.677Z,-0.21
2023-02-16T08:09:18.891Z,-0.05
2023-02-16T08:11:48.327Z,0.03
2023-02-16T08:14:17.986Z,0.06
2023-02-16T08:16:49.541Z,0.05
2023-02-16T08:19:20.933Z,0.11
2023-02-16T08:21:51.645Z,0.37
2023-02-16T08:24:18.868Z,0.39
2023-02-16T08:26:50.043Z,0.48
2023-02-16T08:29:22.134Z,0.48
2023-02-16T08:31:52.039Z,0.54
2023-02-16T08:34:22.029Z,0.51
2023-02-16T08:36:57.786Z,0.61
2023-02-16T08:39:31.413Z,0.79
2023-02-16T08:42:02.281Z,1.05
2023-02-16T08:44:31.023Z,1.28
2023-02-16T08:47:01.122Z,1.60
2023-02-16T08:49:30.398Z,1.98
2023-02-16T08:52:01.633Z,2.12
2023-02-16T08:54:33.432Z,2.17
2023-02-16T08:57:03.187Z,2.39
2023-02-16T08:59:34.534Z,2.72
2023-02-16T09:02:04.357Z,2.89
2023-02-16T09:04:34.432Z,3.12
2023-02-16T09:07:05.080Z,3.22
2023-02-16T09:09:34.603Z,3.55
2023-02-16T09:12:05.953Z,3.97
2023-02-16T09:14:34.888Z,4.21
2023-02-16T09:17:03.414Z,4.54
2023-02-16T09:19:31.705Z,4.77
2023-02-16T09:22:00.143Z,5.02
2023-02-16T09:24:28.531Z,5.31
2023-02-16T09:26:56.990Z,5.33
2023-02-16T09:29:25.429Z,5.35
2023-02-16T09:31:55.152Z,5.45
2023-02-16T09:34:24.516Z,5.78
2023-02-16T09:36:53.863Z,5.95
2023-02-16T09:39:22.867Z,6.16
2023-02-16T09:42:21.637Z,6.16
2023-02-16T09:45:15.578Z,6.30
2023-02-16T09:47:51.665Z,6.34
2023-02-16T09:50:56.173Z,6.32
2023-02-16T09:53:44.055Z,6.48
2023-02-16T09:56:40.242Z,6.57
2023-02-16T10:00:04.616Z,6.75
2023-02-16T10:03:03.992Z,6.94
2023-02-16T10:06:05.787Z,6.99
2023-02-16T10:09:00.518Z,7.07
2023-02-16T10:12:08.336Z,7.24
2023-02-16T10:14:54.251Z,7.30
2023-02-16T10:17:46.994Z,7.79
2023-02-16T10:20:34.624Z,8.03
2023-02-16T10:23:45.206Z,8.08
2023-02-16T10:26:26.932Z,8.10
2023-02-16T10:29:17.069Z,8.45
2023-02-16T10:32:15.463Z,8.18
2023-02-16T10:35:19.295Z,8.20
2023-02-16T10:38:53.439Z,8.46
2023-02-16T10:41:45.814Z,8.47
2023-02-16T10:44:31.882Z,8.60
2023-02-16T10:47:07.485Z,8.73
2023-02-16T10:49:37.647Z,8.84
2023-02-16T10:52:09.591Z,9.14
2023-02-16T10:54:41.064Z,9.48
2023-02-16T10:57:29.850Z,9.44
2023-02-16T11:00:12.345Z,9.38
2023-02-16T11:02:52.949Z,9.34
2023-02-16T11:05:41.354Z,9.08
2023-02-16T11:08:12.937Z,9.27
2023-02-16T11:10:54.228Z,9.42
2023-02-16T11:13:37.437Z,9.61
2023-02-16T11:16:23.736Z,9.31
2023-02-16T11:19:26.399Z,9.19
2023-02-16T11:21:57.070Z,8.88
2023-02-16T11:24:37.450Z,8.91
2023-02-16T11:27:21.448Z,8.75
2023-02-16T11:30:22.554Z,8.53
2023-02-16T11:32:52.979Z,8.38
2023-02-16T11:35:23.049Z,8.56
2023-02-16T11:37:54.780Z,8.75
2023-02-16T11:40:34.711Z,8.74
2023-02-16T11:43:06.055Z,9.05
2023-02-16T11:45:37.330Z,9.16
2023-02-16T11:48:14.858Z,9.09
2023-02-16T11:51:09.524Z,8.89
2023-02-16T11:53:44.338Z,8.90
2023-02-16T11:56:31.837Z,8.78
2023-02-16T11:59:12.846Z,8.87
2023-02-16T12:01:51.461Z,8.70
2023-02-16T12:05:02.076Z,8.68
2023-02-16T12:08:09.592Z,8.82
2023-02-16T12:11:25.543Z,8.65
2023-02-16T12:14:38.112Z,8.72
2023-02-16T12:17:48.921Z,8.92
2023-02-16T12:20:47.216Z,8.88
2023-02-16T12:23:41.924Z,8.71
2023-02-16T12:26:52.080Z,8.83
2023-02-16T12:29:45.136Z,9.02
2023-02-16T12:32:53.360Z,9.16
2023-02-16T12:35:49.620Z,9.27
2023-02-16T12:39:15.597Z,9.14
2023-02-16T12:42:25.414Z,9.28
2023-02-16T12:45:10.930Z,9.33
2023-02-16T12:48:28.670Z,9.46
2023-02-16T12:51:05.237Z,9.73
2023-02-16T12:54:01.739Z,9.79
2023-02-16T12:56:45.220Z,9.88
2023-02-16T12:59:55.580Z,9.79
2023-02-16T13:02:40.610Z,9.92
2023-02-16T13:05:37.528Z,9.72
2023-02-16T13:08:34.290Z,9.87
2023-02-16T13:12:02.559Z,9.93
2023-02-16T13:14:42.961Z,9.95
2023-02-16T13:17:34.174Z,10.19
2023-02-16T13:20:13.390Z,10.15
2023-02-16T13:23:13.149Z,10.29
2023-02-16T13:26:38.754Z,10.25
2023-02-16T13:30:01.379Z,10.27
2023-02-16T13:33:22.838Z,10.53
2023-02-16T13:36:19.017Z,10.49
2023-02-16T13:39:40.545Z,10.54
2023-02-16T13:42:39.300Z,10.63
2023-02-16T13:45:24.529Z,10.68
2023-02-16T13:47:58.994Z,10.78
2023-02-16T13:50:34.766Z,10.90
2023-02-16T13:53:21.705Z,11.15
2023-02-16T13:56:29.959Z,11.39
2023-02-16T13:59:20.206Z,11.51
2023-02-16T14:01:54.852Z,11.51
2023-02-16T14:04:24.871Z,11.45
2023-02-16T14:07:03.802Z,11.28
2023-02-16T14:09:39.790Z,11.10
2023-02-16T14:12:17.629Z,10.96
2023-02-16T14:14:53.708Z,10.88
2023-02-16T14:17:35.013Z,10.63
2023-02-16T14:20:15.066Z,10.55
2023-02-16T14:23:00.090Z,10.51
2023-02-16T14:25:39.339Z,10.50
2023-02-16T14:28:21.545Z,10.55
2023-02-16T14:31:02.287Z,10.61
2023-02-16T14:34:12.909Z,10.51
2023-02-16T14:37:17.099Z,10.39
2023-02-16T14:40:07.277Z,10.39
2023-02-16T14:42:58.370Z,10.44
2023-02-16T14:46:08.876Z,10.32
2023-02-16T14:49:11.604Z,10.14
2023-02-16T14:52:24.114Z,10.07
2023-02-16T14:55:33.994Z,10.01
2023-02-16T14:58:47.619Z,9.99
2023-02-16T15:01:21.633Z,9.88
2023-02-16T15:03:56.890Z,9.81
2023-02-16T15:06:48.424Z,9.70
2023-02-16T15:09:34.257Z,9.63
2023-02-16T15:12:24.607Z,9.61
2023-02-16T15:15:01.648Z,9.69
2023-02-16T15:17:50.108Z,9.78
2023-02-16T15:20:39.762Z,9.73
2023-02-16T15:23:29.316Z,9.63
2023-02-16T15:26:20.531Z,9.52
2023-02-16T15:29:23.360Z,9.56
2023-02-16T15:31:56.963Z,9.50
2023-02-16T15:34:36.228Z,9.36
2023-02-16T15:37:37.874Z,9.18
2023-02-16T15:40:31.774Z,9.15
2023-02-16T15:43:44.099Z,9.19
2023-02-16T15:46:42.138Z,9.05
2023-02-16T15:49:30.466Z,8.84
2023-02-16T15:52:01.960Z,8.73
2023-02-16T15:54:36.400Z,8.60
2023-02-16T15:57:32.632Z,8.40
2023-02-16T16:00:20.864Z,8.24
2023-02-16T16:03:00.313Z,8.13
2023-02-16T16:05:39.855Z,7.96
2023-02-16T16:08:29.049Z,7.77
2023-02-16T16:10:59.477Z,7.67
2023-02-16T16:13:32.856Z,7.57
2023-02-16T16:16:04.909Z,7.38
2023-02-16T16:18:51.201Z,7.21
2023-02-16T16:21:34.313Z,7.04
2023-02-16T16:24:11.937Z,6.87
2023-02-16T16:26:59.578Z,6.70
2023-02-16T16:29:48.567Z,6.56
2023-02-16T16:32:27.748Z,6.43
2023-02-16T16:34:56.650Z,6.31
2023-02-16T16:37:37.453Z,6.23
2023-02-16T16:40:22.092Z,6.17
2023-02-16T16:43:07.486Z,6.15
2023-02-16T16:45:42.315Z,6.09
2023-02-16T16:48:37.329Z,6.04
2023-02-16T16:51:42.055Z,6.18
2023-02-16T16:54:35.818Z,6.32
2023-02-16T16:57:18.825Z,6.38
2023-02-16T16:59:48.846Z,6.37
2023-02-16T17:02:18.666Z,6.41
2023-02-16T17:04:48.441Z,6.42
2023-02-16T17:07:18.321Z,6.44
2023-02-16T17:09:48.055Z,6.57
2023-02-16T17:12:19.472Z,6.50
2023-02-16T17:14:48.685Z,6.49
2023-02-16T17:17:18.614Z,6.47
2023-02-16T17:19:48.504Z,6.43
2023-02-16T17:22:21.257Z,6.58
2023-02-16T17:24:51.261Z,6.65
2023-02-16T17:27:21.104Z,6.54
2023-02-16T17:29:50.990Z,6.45
2023-02-16T17:32:23.651Z,6.41
2023-02-16T17:34:53.743Z,6.40
2023-02-16T17:37:23.460Z,6.43
2023-02-16T17:39:53.624Z,6.39
2023-02-16T17:42:23.538Z,6.33
2023-02-16T17:44:53.415Z,6.30
2023-02-16T17:47:23.312Z,6.32
2023-02-16T17:49:53.152Z,6.27
2023-02-16T17:52:22.989Z,6.28
2023-02-16T17:54:52.909Z,6.25
2023-02-16T17:57:22.666Z,6.18
2023-02-16T17:59:52.663Z,6.12
2023-02-16T18:02:22.669Z,6.10
2023-02-16T18:04:52.289Z,6.14
2023-02-16T18:07:22.322Z,6.09
2023-02-16T18:09:52.433Z,6.08
2023-02-16T18:12:22.426Z,6.05
2023-02-16T18:14:52.284Z,6.14
2023-02-16T18:17:21.958Z,6.15
2023-02-16T18:19:51.744Z,6.38
2023-02-16T18:22:21.649Z,6.44
2023-02-16T18:24:51.449Z,6.44
2023-02-16T18:27:21.619Z,6.50
2023-02-16T18:29:51.786Z,6.53
2023-02-16T18:32:21.855Z,6.68
2023-02-16T18:34:51.651Z,6.57
2023-02-16T18:37:21.491Z,6.50
2023-02-16T18:39:51.465Z,6.43
2023-02-16T18:42:22.602Z,6.47
2023-02-16T18:44:52.697Z,6.46
2023-02-16T18:47:22.566Z,6.42
2023-02-16T18:49:52.664Z,6.56
2023-02-16T18:52:23.721Z,6.61
2023-02-16T18:54:53.237Z,6.65
2023-02-16T18:57:23.088Z,6.67
2023-02-16T18:59:52.842Z,6.61
2023-02-16T19:02:22.693Z,6.67
2023-02-16T19:04:52.616Z,6.57
2023-02-16T19:07:22.503Z,6.57
2023-02-16T19:09:52.863Z,6.62
2023-02-16T19:12:22.940Z,6.69
2023-02-16T19:14:52.799Z,6.64
2023-02-16T19:17:22.724Z,6.56
2023-02-16T19:19:52.437Z,6.78
2023-02-16T19:22:22.301Z,6.77
2023-02-16T19:24:53.597Z,6.75
2023-02-16T19:27:23.108Z,6.65
2023-02-16T19:29:52.945Z,6.55
2023-02-16T19:32:22.914Z,6.53
2023-02-16T19:34:52.775Z,6.58
2023-02-16T19:37:22.777Z,6.67
2023-02-16T19:39:52.732Z,6.65
2023-02-16T19:42:23.040Z,6.72
2023-02-16T19:44:52.794Z,6.71
2023-02-16T19:47:22.632Z,6.66
2023-02-16T19:49:52.934Z,6.51
2023-02-16T19:52:23.061Z,6.53
2023-02-16T19:54:52.790Z,6.49
2023-02-16T19:57:22.730Z,6.42
2023-02-16T19:59:52.564Z,6.60
2023-02-16T20:02:21.062Z,6.48
2023-02-16T20:04:49.550Z,6.42
2023-02-16T20:07:17.965Z,6.39
2023-02-16T20:09:46.493Z,6.36
2023-02-16T20:12:19.833Z,6.29
2023-02-16T20:14:49.866Z,6.28
2023-02-16T20:23:17.215Z,6.20
2023-02-16T20:25:44.679Z,6.09
2023-02-16T20:28:14.461Z,6.15
2023-02-16T20:30:44.309Z,6.14
2023-02-16T20:33:12.360Z,6.07
2023-02-16T20:35:42.553Z,6.02
2023-02-16T20:38:13.378Z,6.00
2023-02-16T20:40:43.892Z,5.92
2023-02-16T20:43:15.742Z,5.89
2023-02-16T20:45:45.056Z,5.86
2023-02-16T20:48:16.578Z,5.88
2023-02-16T20:50:45.070Z,5.89
2023-02-16T20:53:14.994Z,5.92
2023-02-16T20:55:44.720Z,5.89
2023-02-16T20:58:14.560Z,5.85
2023-02-16T21:00:45.268Z,5.90
2023-02-16T21:03:15.849Z,5.86
2023-02-16T21:05:45.480Z,5.85
2023-02-16T21:08:15.409Z,5.81
2023-02-16T21:10:45.260Z,5.77
2023-02-16T21:13:15.712Z,5.72
2023-02-16T21:15:44.882Z,5.66
2023-02-16T21:18:14.695Z,5.61
2023-02-16T21:20:45.378Z,5.59
2023-02-16T21:23:14.684Z,5.61
2023-02-16T21:25:44.614Z,5.70
2023-02-16T21:28:14.573Z,5.70
2023-02-16T21:30:44.370Z,5.84
2023-02-16T21:33:17.335Z,5.81
2023-02-16T21:35:47.676Z,5.86
2023-02-16T21:38:17.828Z,6.01
2023-02-16T21:41:06.059Z,5.99
2023-02-16T21:43:35.878Z,5.94
2023-02-16T21:46:08.641Z,5.93
2023-02-16T21:48:48.327Z,5.84
2023-02-16T21:51:24.335Z,5.78
2023-02-16T21:53:55.249Z,5.71
2023-02-16T21:56:48.665Z,5.74
2023-02-16T21:59:22.696Z,5.71
2023-02-16T22:01:52.831Z,5.70
2023-02-16T22:04:23.231Z,5.65
2023-02-16T22:06:52.216Z,5.65
2023-02-16T22:09:23.707Z,5.70
2023-02-16T22:11:53.949Z,5.71
2023-02-16T22:14:22.199Z,5.72
2023-02-16T22:16:50.943Z,5.80
2023-02-16T22:19:19.786Z,5.74
2023-02-16T22:21:49.577Z,5.66
2023-02-16T22:24:20.761Z,5.65
2023-02-16T22:26:50.848Z,5.70
2023-02-16T22:29:20.494Z,5.72
2023-02-16T22:31:50.472Z,5.74
2023-02-16T22:34:22.601Z,5.79
2023-02-16T22:36:52.700Z,5.89
2023-02-16T22:39:22.702Z,5.98
2023-02-16T22:41:52.559Z,5.92
2023-02-16T22:44:22.586Z,5.95
2023-02-16T22:46:52.443Z,5.84
2023-02-16T22:49:22.486Z,5.81
2023-02-16T22:51:52.585Z,5.73
2023-02-16T22:54:23.299Z,5.74
2023-02-16T22:56:53.339Z,5.73
2023-02-16T22:59:23.548Z,5.76
2023-02-16T23:01:53.370Z,5.94
2023-02-16T23:04:23.040Z,5.75
2023-02-16T23:06:53.092Z,5.74
2023-02-16T23:09:23.220Z,5.83
2023-02-16T23:11:53.217Z,5.74
2023-02-16T23:14:23.081Z,5.75
2023-02-16T23:16:54.947Z,5.71
2023-02-16T23:19:27.392Z,5.78
2023-02-16T23:21:57.063Z,5.76
2023-02-16T23:24:27.414Z,5.75
2023-02-16T23:26:57.858Z,5.70
2023-02-16T23:29:28.008Z,5.68
2023-02-16T23:31:55.355Z,5.68
2023-02-16T23:34:22.891Z,5.70
2023-02-16T23:36:52.795Z,5.78
2023-02-16T23:39:22.761Z,5.77
2023-02-16T23:41:52.674Z,5.69
2023-02-16T23:44:22.398Z,5.63
2023-02-16T23:46:52.267Z,5.83
2023-02-16T23:49:22.098Z,5.81
2023-02-16T23:51:52.152Z,5.81
2023-02-16T23:54:22.023Z,5.79
2023-02-16T23:56:52.863Z,5.91
2023-02-16T23:59:22.242Z,5.84
